Time;durP1;ratioP1;P1;durP2;ratioP2;P2;SDS_P1;SDS_P2;PMS_P1;PMS_P2;Temp;Humidity;BMP_temperature;BMP_pressure;BME280_temperature;BME280_humidity;BME280_pressure;Samples;Min_cycle;Max_cycle;Signal;HPM_P1;HPM_P2
2021/04/10 00:00:07;;;;;;;4.23;1.27;;;;;;;;;;5010477;28;20392;-74
2021/04/10 00:02:33;;;;;;;3.97;1.17;;;11.90;97.60;;;;;;5010451;28;20376;-73
2021/04/10 00:04:59;;;;;;;1.13;0.80;;;11.60;95.10;;;;;;4996711;28;20924;-73
2021/04/10 00:07:25;;;;;;;2.23;1.03;;;;;;;;;;5012196;28;20437;-73
2021/04/10 00:09:51;;;;;;;1.67;0.88;;;;;;;;;;5014242;28;20388;-73
2021/04/10 00:12:17;;;;;;;1.83;0.95;;;13.10;91.20;;;;;;5019009;28;20504;-71
2021/04/10 00:14:43;;;;;;;1.33;1.00;;;;;;;;;;5033839;28;20383;-73
2021/04/10 00:17:09;;;;;;;1.23;1.00;;;;;;;;;;5032631;28;20402;-73
2021/04/10 00:19:35;;;;;;;3.60;1.20;;;;;;;;;;5033176;28;20486;-73
2021/04/10 00:22:01;;;;;;;1.85;0.93;;;;;;;;;;5034483;28;20383;-72
2021/04/10 00:24:27;;;;;;;5.10;1.10;;;;;;;;;;5032531;28;20363;-73
2021/04/10 00:26:53;;;;;;;1.60;1.00;;;;;;;;;;5032826;28;20371;-72
2021/04/10 00:29:19;;;;;;;3.20;1.10;;;;;;;;;;5032621;28;20382;-73
2021/04/10 00:31:45;;;;;;;1.30;0.90;;;13.10;90.50;;;;;;5033425;28;20411;-73
2021/04/10 00:34:10;;;;;;;1.00;0.90;;;12.70;92.60;;;;;;5034081;28;20472;-73
2021/04/10 00:36:36;;;;;;;1.38;1.02;;;;;;;;;;5033026;28;20454;-73
2021/04/10 00:39:03;;;;;;;1.70;1.10;;;;;;;;;;5033257;28;20383;-73
2021/04/10 00:41:29;;;;;;;3.08;1.20;;;12.50;90.90;;;;;;5032325;28;20375;-73
2021/04/10 00:43:54;;;;;;;1.90;1.10;;;12.80;91.00;;;;;;5033304;28;20433;-73
2021/04/10 00:46:20;;;;;;;1.90;0.83;;;;;;;;;;5032662;28;20463;-73
2021/04/10 00:48:46;;;;;;;1.23;0.80;;;;;;;;;;5015251;28;20847;-73
2021/04/10 00:51:12;;;;;;;1.83;1.17;;;12.20;91.20;;;;;;5032996;28;20379;-73
2021/04/10 00:53:38;;;;;;;2.40;1.20;;;;;;;;;;5032325;28;20422;-73
2021/04/10 00:56:06;;;;;;;2.40;1.10;;;;;;;;;;5033324;28;20386;-72
2021/04/10 00:58:32;;;;;;;2.67;1.00;;;12.50;95.80;;;;;;5032246;28;20398;-72
2021/04/10 01:01:00;;;;;;;1.58;1.20;;;12.40;95.80;;;;;;5033329;28;20472;-72
2021/04/10 01:03:26;;;;;;;2.22;1.20;;;;;;;;;;5032005;28;20908;-72
2021/04/10 01:05:52;;;;;;;3.00;1.30;;;;;;;;;;5032758;28;20462;-74
2021/04/10 01:08:18;;;;;;;2.00;1.10;;;;;;;;;;5032429;28;20379;-76
2021/04/10 01:10:43;;;;;;;1.42;1.02;;;12.30;93.90;;;;;;5031389;28;20407;-72
2021/04/10 01:13:15;;;;;;;1.77;1.10;;;12.30;91.80;;;;;;5029136;28;20805;-73
2021/04/10 01:15:46;;;;;;;1.50;1.00;;;;;;;;;;5011123;28;20397;-73
2021/04/10 01:18:17;;;;;;;1.10;0.88;;;12.90;91.50;;;;;;5012924;28;20729;-72
2021/04/10 01:21:06;;;;;;;2.80;1.20;;;12.30;91.20;;;;;;5011474;28;20381;-71
2021/04/10 01:23:32;;;;;;;2.20;0.90;;;12.70;92.30;;;;;;5012022;28;20389;-73
2021/04/10 01:26:01;;;;;;;1.70;0.90;;;;;;;;;;5012760;28;20400;-73
2021/04/10 01:28:33;;;;;;;2.10;1.10;;;;;;;;;;5011671;28;20393;-72
2021/04/10 01:31:00;;;;;;;2.80;1.00;;;12.60;91.40;;;;;;5012455;28;20870;-72
2021/04/10 01:33:29;;;;;;;1.70;1.00;;;;;;;;;;5011506;28;20893;-73
2021/04/10 01:35:59;;;;;;;2.20;0.80;;;12.50;91.30;;;;;;5011888;28;20380;-73
2021/04/10 01:38:29;;;;;;;1.73;0.95;;;12.70;91.30;;;;;;5011273;28;20411;-72
2021/04/10 01:40:56;;;;;;;1.05;0.70;;;;;;;;;;5012340;28;20531;-72
2021/04/10 01:43:22;;;;;;;1.15;0.82;;;;;;;;;;5009989;28;20388;-73
2021/04/10 01:45:49;;;;;;;1.60;0.93;;;;;;;;;;5011831;28;20719;-73
2021/04/10 01:48:15;;;;;;;2.70;0.80;;;;;;;;;;5011849;28;20373;-72
2021/04/10 01:50:43;;;;;;;1.00;0.90;;;12.70;93.70;;;;;;5011437;28;20468;-72
2021/04/10 01:53:09;;;;;;;1.45;0.60;;;12.80;91.20;;;;;;5012072;28;20431;-73
2021/04/10 01:55:36;;;;;;;3.05;0.95;;;;;;;;;;5011114;28;20957;-73
2021/04/10 01:58:03;;;;;;;1.52;0.95;;;12.40;92.40;;;;;;5012761;28;20836;-73
2021/04/10 02:00:31;;;;;;;1.10;0.80;;;;;;;;;;5011427;28;20409;-72
2021/04/10 02:02:57;;;;;;;2.75;1.10;;;12.70;94.90;;;;;;5011709;28;20401;-72
2021/04/10 02:05:24;;;;;;;2.83;1.10;;;;;;;;;;5011012;28;20465;-73
2021/04/10 02:07:50;;;;;;;1.48;0.90;;;;;;;;;;5011728;28;20380;-73
2021/04/10 02:10:22;;;;;;;3.42;1.10;;;;;;;;;;5011513;28;20384;-72
2021/04/10 02:12:49;;;;;;;1.45;1.02;;;12.50;95.10;;;;;;5022774;28;20423;-72
2021/04/10 02:15:15;;;;;;;3.72;0.90;;;;;;;;;;5031521;28;20390;-72
2021/04/10 02:17:41;;;;;;;2.20;1.05;;;;;;;;;;5030483;28;21047;-72
2021/04/10 02:20:12;;;;;;;1.30;0.55;;;;;;;;;;5031556;28;20383;-71
2021/04/10 02:22:43;;;;;;;1.60;1.00;;;;;;;;;;5030689;28;20371;-72
2021/04/10 02:25:10;;;;;;;2.00;1.38;;;;;;;;;;5031105;28;20509;-72
2021/04/10 02:27:36;;;;;;;0.95;0.80;;;;;;;;;;5030571;28;20368;-72
2021/04/10 02:30:03;;;;;;;1.52;0.88;;;;;;;;;;5031325;28;20421;-71
2021/04/10 02:32:49;;;;;;;1.33;0.75;;;12.40;91.20;;;;;;5030192;28;20407;-72
2021/04/10 02:35:24;;;;;;;1.70;0.90;;;12.30;95.90;;;;;;5030527;28;20402;-72
2021/04/10 02:37:51;;;;;;;1.40;1.02;;;;;;;;;;5013910;28;20390;-73
2021/04/10 02:40:22;;;;;;;1.80;0.90;;;;;;;;;;5029937;28;20394;-72
2021/04/10 02:42:48;;;;;;;2.60;0.90;;;12.60;91.20;;;;;;5029504;28;20391;-72
2021/04/10 02:45:33;;;;;;;1.37;0.97;;;;;;;;;;5031055;28;20390;-72
2021/04/10 02:48:01;;;;;;;1.25;0.82;;;;;;;;;;5031069;28;20401;-71
2021/04/10 02:50:28;;;;;;;1.90;0.80;;;;;;;;;;5030501;28;20869;-72
2021/04/10 02:52:56;;;;;;;1.77;0.70;;;;;;;;;;5030862;28;20827;-72
2021/04/10 02:55:33;;;;;;;0.77;0.70;;;12.10;90.00;;;;;;5030715;28;20748;-74
2021/04/10 02:58:11;;;;;;;2.03;0.80;;;12.10;93.60;;;;;;5031070;28;20375;-71
2021/04/10 03:00:38;;;;;;;1.10;0.80;;;;;;;;;;5030130;28;20775;-71
2021/04/10 03:03:05;;;;;;;3.10;1.00;;;;;;;;;;5030877;28;20379;-71
2021/04/10 03:05:31;;;;;;;2.90;0.60;;;;;;;;;;5029786;28;20375;-73
2021/04/10 03:07:58;;;;;;;1.60;0.80;;;;;;;;;;5031045;28;20383;-71
2021/04/10 03:10:24;;;;;;;2.40;0.77;;;;;;;;;;5030522;28;20387;-74
2021/04/10 03:12:52;;;;;;;2.00;1.10;;;12.00;91.50;;;;;;5029680;28;20419;-72
2021/04/10 03:15:19;;;;;;;1.10;0.80;;;;;;;;;;5010411;28;20389;-72
2021/04/10 03:17:47;;;;;;;5.40;0.88;;;;;;;;;;5009860;28;20373;-70
2021/04/10 03:20:14;;;;;;;1.05;0.80;;;;;;;;;;5010893;28;20463;-71
2021/04/10 03:22:44;;;;;;;1.42;0.80;;;;;;;;;;5010192;28;20385;-73
2021/04/10 03:25:11;;;;;;;1.00;0.70;;;;;;;;;;5010417;28;20381;-72
2021/04/10 03:27:38;;;;;;;1.30;0.70;;;;;;;;;;5009847;28;20382;-72
2021/04/10 03:30:05;;;;;;;1.35;0.90;;;;;;;;;;5009486;28;20389;-73
2021/04/10 03:32:31;;;;;;;2.58;0.80;;;;;;;;;;5009680;28;20417;-73
2021/04/10 03:34:58;;;;;;;2.40;0.90;;;;;;;;;;5010327;28;20892;-72
2021/04/10 03:37:25;;;;;;;2.10;0.90;;;;;;;;;;5009903;28;20442;-74
2021/04/10 03:39:51;;;;;;;2.20;0.90;;;;;;;;;;5010046;28;20385;-72
2021/04/10 03:42:22;;;;;;;1.90;0.95;;;;;;;;;;5011037;28;20433;-72
2021/04/10 03:44:48;;;;;;;1.10;0.68;;;;;;;;;;5009707;28;20384;-71
2021/04/10 03:47:14;;;;;;;1.70;0.70;;;;;;;;;;5003797;28;20392;-73
2021/04/10 03:49:40;;;;;;;2.00;1.08;;;;;;;;;;5002248;28;20404;-73
2021/04/10 03:52:05;;;;;;;1.13;0.73;;;12.10;90.20;;;;;;5002465;28;20416;-73
2021/04/10 03:54:32;;;;;;;0.85;0.70;;;;;;;;;;5000991;28;20468;-73
2021/04/10 03:56:58;;;;;;;1.60;0.80;;;;;;;;;;5000788;28;20391;-74
2021/04/10 03:59:25;;;;;;;2.23;0.80;;;;;;;;;;4999554;28;20420;-74
2021/04/10 04:01:50;;;;;;;1.00;0.80;;;12.20;86.90;;;;;;5003831;28;20377;-73
2021/04/10 04:04:16;;;;;;;1.10;0.82;;;12.10;92.30;;;;;;5001655;28;21254;-72
2021/04/10 04:06:42;;;;;;;0.93;0.50;;;;;;;;;;5000035;28;20397;-73
2021/04/10 04:09:07;;;;;;;2.65;0.80;;;11.90;85.60;;;;;;4999722;28;20396;-74
2021/04/10 04:11:33;;;;;;;0.95;0.70;;;;;;;;;;5000597;28;21047;-74
2021/04/10 04:13:59;;;;;;;2.65;0.70;;;;;;;;;;5004412;28;20893;-74
2021/04/10 04:16:25;;;;;;;0.80;0.60;;;;;;;;;;5008404;28;20458;-72
2021/04/10 04:18:51;;;;;;;3.70;0.70;;;12.20;90.40;;;;;;5000622;28;21233;-72
2021/04/10 04:21:17;;;;;;;1.30;0.77;;;;;;;;;;5003385;28;20415;-74
2021/04/10 04:23:43;;;;;;;1.20;0.70;;;;;;;;;;5003273;28;20387;-74
2021/04/10 04:26:09;;;;;;;0.90;0.50;;;11.90;87.90;;;;;;5002533;28;21017;-72
2021/04/10 04:28:34;;;;;;;2.20;1.00;;;12.30;90.10;;;;;;5000835;28;20421;-74
2021/04/10 04:31:00;;;;;;;1.00;0.60;;;;;;;;;;5007578;28;20391;-73
2021/04/10 04:33:26;;;;;;;0.60;0.50;;;;;;;;;;5003670;28;20417;-72
2021/04/10 04:35:52;;;;;;;1.30;0.77;;;11.30;90.40;;;;;;5003535;28;20389;-74
2021/04/10 04:38:18;;;;;;;1.20;0.70;;;;;;;;;;5002590;28;20386;-75
2021/04/10 04:40:44;;;;;;;2.80;0.70;;;;;;;;;;5004587;28;20389;-71
2021/04/10 04:43:10;;;;;;;1.15;0.90;;;11.60;91.60;;;;;;5002946;28;20561;-73
2021/04/10 04:45:36;;;;;;;1.73;0.70;;;;;;;;;;5002088;28;20474;-73
2021/04/10 04:48:02;;;;;;;0.80;0.70;;;;;;;;;;4998460;28;20487;-72
2021/04/10 04:50:28;;;;;;;0.90;0.70;;;;;;;;;;5007603;28;21176;-74
2021/04/10 04:52:54;;;;;;;0.90;0.70;;;;;;;;;;5007831;28;20499;-74
2021/04/10 04:55:20;;;;;;;1.00;0.60;;;;;;;;;;5005698;28;20385;-73
2021/04/10 04:57:46;;;;;;;1.30;0.70;;;;;;;;;;5002351;28;20412;-72
2021/04/10 05:00:12;;;;;;;0.60;0.60;;;;;;;;;;5009792;28;20444;-73
2021/04/10 05:02:38;;;;;;;1.80;0.80;;;;;;;;;;5007275;28;20398;-72
2021/04/10 05:05:04;;;;;;;2.47;0.70;;;;;;;;;;5004522;28;20381;-73
2021/04/10 05:07:30;;;;;;;1.33;0.90;;;;;;;;;;5005019;28;20377;-76
2021/04/10 05:09:56;;;;;;;1.42;0.73;;;10.80;99.90;;;;;;5006342;28;20388;-72
2021/04/10 05:12:22;;;;;;;0.90;0.70;;;;;;;;;;4996824;28;20422;-72
2021/04/10 05:14:48;;;;;;;1.23;0.80;;;;;;;;;;5007206;28;20387;-73
2021/04/10 05:17:14;;;;;;;1.60;0.90;;;;;;;;;;5011944;28;20452;-72
2021/04/10 05:19:40;;;;;;;2.70;0.98;;;;;;;;;;5011149;28;20500;-73
2021/04/10 05:22:06;;;;;;;0.80;0.60;;;;;;;;;;5011923;28;20392;-73
2021/04/10 05:24:32;;;;;;;1.30;0.80;;;;;;;;;;5011529;28;20412;-74
2021/04/10 05:26:58;;;;;;;1.83;0.80;;;;;;;;;;5011678;28;20454;-73
2021/04/10 05:29:24;;;;;;;1.10;0.80;;;;;;;;;;5011919;28;20464;-72
2021/04/10 05:31:50;;;;;;;0.85;0.80;;;;;;;;;;5011685;28;20465;-73
2021/04/10 05:34:16;;;;;;;0.80;0.70;;;;;;;;;;5012032;28;20377;-72
2021/04/10 05:36:42;;;;;;;0.82;0.60;;;;;;;;;;5011454;28;20379;-73
2021/04/10 05:39:08;;;;;;;0.70;0.60;;;;;;;;;;5011433;28;20377;-73
2021/04/10 05:41:34;;;;;;;3.05;1.00;;;;;;;;;;5011530;28;20377;-74
2021/04/10 05:44:00;;;;;;;1.23;0.90;;;9.80;99.90;;;;;;5010628;28;20395;-72
2021/04/10 05:46:26;;;;;;;1.50;0.80;;;;;;;;;;5012117;28;20397;-72
2021/04/10 05:48:52;;;;;;;1.27;1.00;;;10.30;99.90;;;;;;5011025;28;20385;-72
2021/04/10 05:51:18;;;;;;;1.30;0.80;;;;;;;;;;4994611;28;20738;-73
2021/04/10 05:53:45;;;;;;;2.33;0.98;;;;;;;;;;5010703;28;20765;-73
2021/04/10 05:56:11;;;;;;;1.17;0.82;;;10.30;99.90;;;;;;5010877;28;20377;-73
2021/04/10 05:58:38;;;;;;;3.30;1.08;;;;;;;;;;5011180;28;20381;-73
2021/04/10 06:01:04;;;;;;;2.17;0.95;;;;;;;;;;5011684;28;20474;-73
2021/04/10 06:03:30;;;;;;;2.50;0.80;;;10.00;99.90;;;;;;5011966;28;20393;-72
2021/04/10 06:05:56;;;;;;;1.10;1.00;;;;;;;;;;5011406;28;20915;-72
2021/04/10 06:08:22;;;;;;;2.20;1.10;;;10.10;99.90;;;;;;5011994;28;20389;-72
2021/04/10 06:10:48;;;;;;;1.03;0.87;;;;;;;;;;5011198;28;20396;-72
2021/04/10 06:13:15;;;;;;;1.67;1.00;;;;;;;;;;5022638;28;20412;-73
2021/04/10 06:15:42;;;;;;;1.70;0.80;;;;;;;;;;5010270;28;20593;-73
2021/04/10 06:18:08;;;;;;;1.60;1.08;;;9.40;99.90;;;;;;5012213;28;20383;-72
2021/04/10 06:20:34;;;;;;;2.10;1.10;;;;;;;;;;5011822;28;20488;-76
2021/04/10 06:23:00;;;;;;;2.97;1.00;;;;;;;;;;5010192;28;20919;-72
2021/04/10 06:25:26;;;;;;;0.77;0.70;;;;;;;;;;5011688;28;20413;-72
2021/04/10 06:27:52;;;;;;;0.80;0.80;;;;;;;;;;5009865;28;20430;-73
2021/04/10 06:30:18;;;;;;;2.28;1.15;;;;;;;;;;5011569;28;20376;-74
2021/04/10 06:32:43;;;;;;;1.23;1.13;;;9.40;99.90;;;;;;5010937;28;20409;-73
2021/04/10 06:35:10;;;;;;;1.27;1.00;;;;;;;;;;5011358;28;20395;-73
2021/04/10 06:37:36;;;;;;;1.70;0.80;;;;;;;;;;5011604;28;20703;-75
2021/04/10 06:40:03;;;;;;;1.00;0.90;;;;;;;;;;5010961;28;20923;-72
2021/04/10 06:42:30;;;;;;;1.65;1.00;;;9.50;99.90;;;;;;5011593;28;20401;-72
2021/04/10 06:44:56;;;;;;;1.27;0.88;;;;;;;;;;5010940;28;20377;-73
2021/04/10 06:47:23;;;;;;;1.40;0.60;;;;;;;;;;5011738;28;20395;-72
2021/04/10 06:49:53;;;;;;;0.85;0.80;;;;;;;;;;5009711;28;20435;-71
2021/04/10 06:52:19;;;;;;;1.88;1.15;;;;;;;;;;5011709;28;20493;-72
2021/04/10 06:55:09;;;;;;;1.10;0.90;;;9.80;99.90;;;;;;5010846;28;20443;-72
2021/04/10 06:58:02;;;;;;;1.80;0.90;;;9.80;99.90;;;;;;5011435;28;20401;-72
2021/04/10 07:00:29;;;;;;;1.50;0.80;;;;;;;;;;5011440;28;20415;-71
2021/04/10 07:02:58;;;;;;;1.20;0.70;;;;;;;;;;5008302;28;20737;-72
2021/04/10 07:05:25;;;;;;;1.30;0.80;;;;;;;;;;5010172;28;20384;-72
2021/04/10 07:07:51;;;;;;;0.90;0.70;;;;;;;;;;5008669;28;20873;-72
2021/04/10 07:10:18;;;;;;;0.85;0.77;;;;;;;;;;5010729;28;20392;-72
2021/04/10 07:12:44;;;;;;;1.27;1.10;;;10.40;99.90;;;;;;5006263;28;20769;-72
2021/04/10 07:15:12;;;;;;;1.20;0.90;;;10.40;99.90;;;;;;5011081;28;20399;-73
2021/04/10 07:17:38;;;;;;;0.80;0.73;;;;;;;;;;5010898;28;20385;-74
2021/04/10 07:20:30;;;;;;;2.00;0.70;;;;;;;;;;5011639;28;20471;-72
2021/04/10 07:23:00;;;;;;;0.70;0.68;;;;;;;;;;5006516;28;20395;-72
2021/04/10 07:25:27;;;;;;;0.77;0.70;;;;;;;;;;5011111;28;20404;-72
2021/04/10 07:27:53;;;;;;;1.10;0.50;;;;;;;;;;5006512;28;20741;-73
2021/04/10 07:30:20;;;;;;;1.17;0.70;;;;;;;;;;5010638;28;20377;-73
2021/04/10 07:32:46;;;;;;;0.80;0.70;;;;;;;;;;5009983;28;20409;-73
2021/04/10 07:35:13;;;;;;;0.73;0.50;;;;;;;;;;5010730;28;20431;-73
2021/04/10 07:37:40;;;;;;;2.50;0.50;;;;;;;;;;5010287;28;20792;-74
2021/04/10 07:40:13;;;;;;;0.60;0.50;;;11.00;99.90;;;;;;5010663;28;20396;-72
2021/04/10 07:42:43;;;;;;;1.90;0.65;;;10.90;99.90;;;;;;4992787;28;20921;-75
2021/04/10 07:45:24;;;;;;;2.78;0.60;;;;;;;;;;5010587;28;20430;-72
2021/04/10 07:47:50;;;;;;;1.42;0.80;;;11.40;98.50;;;;;;5009815;28;20468;-72
2021/04/10 07:50:19;;;;;;;1.00;0.50;;;10.90;98.70;;;;;;5010715;28;20389;-72
2021/04/10 07:52:45;;;;;;;0.80;0.50;;;;;;;;;;5010123;28;20435;-73
2021/04/10 07:55:37;;;;;;;1.10;0.65;;;11.40;97.00;;;;;;5009876;28;20377;-73
2021/04/10 07:58:32;;;;;;;0.70;0.45;;;11.30;98.50;;;;;;4995337;28;20381;-72
2021/04/10 08:01:06;;;;;;;0.90;0.50;;;11.60;99.90;;;;;;5009818;28;20455;-72
2021/04/10 08:03:37;;;;;;;0.90;0.50;;;11.50;98.30;;;;;;5011022;28;20548;-73
2021/04/10 08:06:06;;;;;;;0.60;0.60;;;;;;;;;;5009870;28;20389;-72
2021/04/10 08:08:45;;;;;;;1.40;0.70;;;;;;;;;;5010619;28;20780;-73
2021/04/10 08:11:12;;;;;;;0.70;0.50;;;;;;;;;;5010602;28;20770;-73
2021/04/10 08:13:38;;;;;;;0.95;0.60;;;;;;;;;;5011617;28;20421;-73
2021/04/10 08:16:14;;;;;;;0.60;0.40;;;;;;;;;;5008517;28;20453;-73
2021/04/10 08:18:51;;;;;;;0.95;0.60;;;;;;;;;;5010039;28;20394;-75
2021/04/10 08:21:21;;;;;;;3.60;0.60;;;12.00;94.60;;;;;;5010389;28;20444;-73
2021/04/10 08:23:48;;;;;;;1.60;0.70;;;;;;;;;;4992621;28;20428;-73
2021/04/10 08:26:15;;;;;;;0.90;0.50;;;11.90;97.40;;;;;;5014024;28;20391;-72
2021/04/10 08:28:42;;;;;;;0.90;0.50;;;11.80;93.30;;;;;;5013584;28;20453;-75
2021/04/10 08:31:08;;;;;;;0.70;0.60;;;12.00;97.40;;;;;;5013514;28;20411;-72
2021/04/10 08:33:34;;;;;;;0.50;0.50;;;;;;;;;;5013583;28;20788;-73
2021/04/10 08:36:03;;;;;;;0.95;0.60;;;;;;;;;;5012854;28;20385;-73
2021/04/10 08:38:31;;;;;;;0.80;0.50;;;;;;;;;;5013759;28;20412;-73
2021/04/10 08:40:58;;;;;;;0.50;0.40;;;12.50;92.00;;;;;;5013214;28;20392;-73
2021/04/10 08:43:25;;;;;;;0.60;0.50;;;12.40;92.50;;;;;;5013432;28;20411;-73
2021/04/10 08:45:53;;;;;;;0.50;0.40;;;;;;;;;;5008167;28;20872;-73
2021/04/10 08:48:22;;;;;;;0.80;0.70;;;;;;;;;;5012852;28;20379;-71
2021/04/10 08:50:51;;;;;;;0.68;0.50;;;;;;;;;;5010700;28;20411;-71
2021/04/10 08:53:22;;;;;;;0.88;0.50;;;;;;;;;;5010170;28;20413;-71
2021/04/10 08:55:49;;;;;;;0.77;0.40;;;;;;;;;;5010128;28;21145;-71
2021/04/10 08:58:18;;;;;;;0.50;0.40;;;;;;;;;;5012588;28;20420;-71
2021/04/10 09:00:44;;;;;;;1.60;0.60;;;;;;;;;;5012400;28;20765;-78
2021/04/10 09:03:10;;;;;;;1.13;0.45;;;12.70;82.30;;;;;;5010957;28;20856;-71
2021/04/10 09:05:54;;;;;;;0.60;0.50;;;;;;;;;;5008789;28;20396;-74
2021/04/10 09:08:23;;;;;;;1.80;0.60;;;;;;;;;;5009791;28;20404;-72
2021/04/10 09:10:50;;;;;;;0.63;0.40;;;;;;;;;;5010428;28;20869;-74
2021/04/10 09:13:16;;;;;;;0.65;0.40;;;13.30;80.80;;;;;;5017820;28;20428;-71
2021/04/10 09:15:42;;;;;;;0.80;0.50;;;;;;;;;;5020057;28;20732;-78
2021/04/10 09:18:10;;;;;;;1.30;0.50;;;12.80;72.70;;;;;;5009678;28;20428;-71
2021/04/10 09:20:45;;;;;;;0.88;0.40;;;13.00;64.80;;;;;;5002810;28;20769;-73
2021/04/10 09:23:23;;;;;;;0.60;0.40;;;;;;;;;;5009114;28;20405;-71
2021/04/10 09:26:08;;;;;;;1.20;0.50;;;13.50;65.80;;;;;;5008208;28;20389;-71
2021/04/10 09:28:35;;;;;;;1.25;0.70;;;13.20;70.70;;;;;;5009366;28;20397;-71
2021/04/10 09:31:03;;;;;;;0.60;0.47;;;;;;;;;;5008267;28;20443;-71
2021/04/10 09:33:29;;;;;;;1.30;0.50;;;13.90;81.00;;;;;;5010350;28;20416;-71
2021/04/10 09:35:55;;;;;;;1.50;0.50;;;13.90;73.70;;;;;;5019717;28;20909;-69
2021/04/10 09:38:39;;;;;;;0.60;0.40;;;13.90;65.60;;;;;;5005408;28;20903;-69
2021/04/10 09:41:05;;;;;;;0.57;0.40;;;;;;;;;;5020508;28;20391;-70
2021/04/10 09:43:32;;;;;;;0.90;0.70;;;;;;;;;;5019827;28;20874;-70
2021/04/10 09:45:58;;;;;;;0.90;0.60;;;;;;;;;;5020508;28;20475;-71
2021/04/10 09:48:25;;;;;;;0.70;0.50;;;;;;;;;;5026438;28;20454;-72
2021/04/10 09:50:52;;;;;;;0.45;0.40;;;14.30;66.40;;;;;;5031099;28;20458;-71
2021/04/10 09:53:22;;;;;;;0.80;0.47;;;;;;;;;;5028881;28;20420;-70
2021/04/10 09:55:59;;;;;;;1.30;0.40;;;;;;;;;;5029241;28;20896;-71
2021/04/10 09:58:25;;;;;;;2.00;0.60;;;;;;;;;;5027524;28;20423;-70
2021/04/10 10:00:52;;;;;;;0.75;0.60;;;;;;;;;;5025710;28;20395;-72
2021/04/10 10:03:23;;;;;;;0.80;0.60;;;14.90;64.60;;;;;;5020114;28;20396;-71
2021/04/10 10:05:51;;;;;;;0.70;0.50;;;15.40;65.70;;;;;;5013880;28;20459;-71
2021/04/10 10:08:18;;;;;;;0.60;0.60;;;;;;;;;;5013916;28;20439;-71
2021/04/10 10:10:51;;;;;;;1.10;0.60;;;14.50;77.80;;;;;;5012054;28;20377;-77
2021/04/10 10:13:19;;;;;;;1.65;0.70;;;14.90;69.50;;;;;;5024247;28;20418;-70
2021/04/10 10:15:47;;;;;;;1.00;0.60;;;14.90;70.60;;;;;;5030937;28;20391;-72
2021/04/10 10:18:17;;;;;;;1.58;0.60;;;;;;;;;;5030343;28;20391;-69
2021/04/10 10:21:01;;;;;;;1.40;0.50;;;;;;;;;;5031490;28;20390;-78
2021/04/10 10:23:28;;;;;;;1.10;0.88;;;;;;;;;;5030426;28;20391;-69
2021/04/10 10:26:01;;;;;;;1.17;0.60;;;15.50;67.60;;;;;;5029884;28;20394;-72
2021/04/10 10:28:27;;;;;;;0.88;0.60;;;15.90;67.20;;;;;;5031179;28;20856;-72
2021/04/10 10:30:53;;;;;;;0.70;0.50;;;;;;;;;;5029419;28;20418;-71
2021/04/10 10:33:20;;;;;;;1.10;0.70;;;16.00;66.40;;;;;;5031326;28;20399;-71
2021/04/10 10:35:51;;;;;;;1.60;0.90;;;16.00;62.10;;;;;;5030686;28;20386;-73
2021/04/10 10:38:17;;;;;;;1.55;0.80;;;15.90;70.70;;;;;;5031079;28;20398;-73
2021/04/10 10:40:50;;;;;;;1.10;0.60;;;15.40;66.50;;;;;;5031037;28;20388;-73
2021/04/10 10:43:17;;;;;;;3.60;0.77;;;16.10;68.60;;;;;;5023349;28;20399;-72
2021/04/10 10:45:43;;;;;;;0.90;0.80;;;;;;;;;;5030751;28;20456;-73
2021/04/10 10:48:15;;;;;;;0.85;0.68;;;;;;;;;;5029967;28;20461;-72
2021/04/10 10:50:41;;;;;;;0.90;0.52;;;;;;;;;;5030952;28;20898;-72
2021/04/10 10:53:16;;;;;;;2.10;0.70;;;;;;;;;;5030507;28;20407;-72
2021/04/10 10:55:55;;;;;;;1.90;0.90;;;16.40;62.20;;;;;;5030164;28;20456;-74
2021/04/10 10:58:22;;;;;;;1.10;0.70;;;16.20;68.20;;;;;;5029623;28;20426;-72
2021/04/10 11:00:48;;;;;;;1.17;0.70;;;16.10;66.80;;;;;;5012663;28;20394;-74
2021/04/10 11:03:23;;;;;;;1.40;0.70;;;;;;;;;;5030824;28;20752;-71
2021/04/10 11:05:49;;;;;;;1.10;0.50;;;;;;;;;;5030140;28;20733;-74
2021/04/10 11:08:17;;;;;;;1.20;0.70;;;;;;;;;;5030646;28;20441;-71
2021/04/10 11:10:43;;;;;;;3.50;0.80;;;;;;;;;;5030809;28;20390;-71
2021/04/10 11:13:11;;;;;;;2.47;0.80;;;;;;;;;;5029444;28;22146;-72
2021/04/10 11:15:38;;;;;;;0.90;0.70;;;16.00;63.10;;;;;;5031015;28;20381;-72
2021/04/10 11:18:04;;;;;;;1.20;0.90;;;;;;;;;;5030102;28;20394;-73
2021/04/10 11:20:34;;;;;;;1.70;1.05;;;16.70;66.00;;;;;;5029636;28;20441;-72
2021/04/10 11:23:08;;;;;;;1.70;1.00;;;16.50;64.90;;;;;;5012669;28;20490;-72
2021/04/10 11:25:50;;;;;;;4.03;0.70;;;16.80;65.00;;;;;;5030856;28;20572;-72
2021/04/10 11:28:32;;;;;;;0.85;0.73;;;16.60;66.50;;;;;;5030772;28;20462;-73
2021/04/10 11:31:16;;;;;;;1.15;0.73;;;;;;;;;;5029918;28;20379;-73
2021/04/10 11:33:42;;;;;;;3.90;0.90;;;;;;;;;;5029559;28;20429;-72
2021/04/10 11:36:08;;;;;;;1.10;1.00;;;;;;;;;;5027615;28;20379;-73
2021/04/10 11:38:34;;;;;;;1.10;0.80;;;19.30;61.40;;;;;;5025263;28;20462;-72
2021/04/10 11:41:00;;;;;;;0.70;0.70;;;;;;;;;;5019131;28;20401;-73
2021/04/10 11:43:26;;;;;;;1.52;0.80;;;;;;;;;;5021592;28;20390;-74
2021/04/10 11:45:53;;;;;;;2.10;0.60;;;19.10;61.80;;;;;;5020038;28;20387;-74
2021/04/10 11:48:20;;;;;;;1.20;0.80;;;;;;;;;;5021764;28;20391;-71
2021/04/10 11:50:48;;;;;;;1.08;0.98;;;;;;;;;;5019904;28;21021;-73
2021/04/10 11:53:15;;;;;;;1.98;0.80;;;20.70;68.00;;;;;;5021762;28;20415;-70
2021/04/10 11:55:40;;;;;;;1.20;0.73;;;19.40;60.60;;;;;;5022036;28;20445;-71
2021/04/10 11:58:06;;;;;;;3.17;0.80;;;20.60;60.00;;;;;;5019256;28;20383;-74
2021/04/10 12:00:32;;;;;;;1.00;0.90;;;;;;;;;;5025018;28;20414;-70
2021/04/10 12:03:06;;;;;;;1.37;0.97;;;;;;;;;;5025166;28;20500;-72
2021/04/10 12:05:42;;;;;;;3.95;1.00;;;20.60;61.50;;;;;;5025282;28;20415;-72
2021/04/10 12:08:08;;;;;;;1.30;1.00;;;;;;;;;;5020057;28;21210;-70
2021/04/10 12:10:59;;;;;;;1.30;1.20;;;21.30;64.60;;;;;;5026584;28;20399;-70
2021/04/10 12:13:27;;;;;;;1.40;1.02;;;;;;;;;;5010386;28;20429;-74
2021/04/10 12:15:57;;;;;;;1.00;0.90;;;;;;;;;;5006280;28;20470;-76
2021/04/10 12:18:26;;;;;;;2.50;1.30;;;20.10;64.70;;;;;;5003368;28;20877;-70
2021/04/10 12:20:55;;;;;;;3.20;1.20;;;20.20;67.20;;;;;;5006492;28;20392;-74
2021/04/10 12:23:22;;;;;;;1.58;1.10;;;;;;;;;;5005950;28;20393;-74
2021/04/10 12:25:48;;;;;;;1.40;1.10;;;;;;;;;;5006680;28;20401;-73
2021/04/10 12:28:15;;;;;;;4.13;1.30;;;21.40;75.50;;;;;;5001320;28;20388;-70
2021/04/10 12:30:41;;;;;;;1.73;1.15;;;21.80;68.50;;;;;;5004651;28;20425;-73
2021/04/10 12:33:07;;;;;;;1.40;0.90;;;21.60;59.60;;;;;;5007045;28;20543;-73
2021/04/10 12:35:34;;;;;;;1.80;1.00;;;;;;;;;;5005749;28;20435;-75
2021/04/10 12:38:00;;;;;;;2.30;0.60;;;;;;;;;;5003892;28;20385;-71
2021/04/10 12:40:25;;;;;;;1.30;1.20;;;21.20;60.30;;;;;;5007640;28;20386;-71
2021/04/10 12:42:51;;;;;;;1.33;1.00;;;;;;;;;;5004997;28;20392;-74
2021/04/10 12:45:18;;;;;;;3.00;1.20;;;;;;;;;;5004392;28;20443;-73
2021/04/10 12:47:46;;;;;;;2.20;1.10;;;20.90;62.60;;;;;;5005992;28;20744;-73
2021/04/10 12:50:13;;;;;;;2.00;1.10;;;;;;;;;;5004016;28;20376;-69
2021/04/10 12:52:39;;;;;;;1.50;0.90;;;;;;;;;;5006226;28;20424;-70
2021/04/10 12:55:06;;;;;;;1.48;1.10;;;;;;;;;;5006144;28;20372;-71
2021/04/10 12:57:32;;;;;;;1.30;1.05;;;20.60;61.20;;;;;;5002207;28;20391;-70
2021/04/10 12:59:58;;;;;;;2.20;1.20;;;;;;;;;;5005089;28;20416;-71
2021/04/10 13:02:24;;;;;;;1.30;1.20;;;;;;;;;;5006980;28;20490;-72
2021/04/10 13:04:50;;;;;;;1.15;0.90;;;21.00;66.00;;;;;;5001519;28;20904;-71
2021/04/10 13:07:16;;;;;;;2.77;1.10;;;;;;;;;;5001551;28;20395;-73
2021/04/10 13:09:44;;;;;;;1.70;1.10;;;20.20;64.50;;;;;;5008835;28;20412;-71
2021/04/10 13:12:14;;;;;;;1.50;1.00;;;20.20;62.90;;;;;;5002936;28;20980;-70
2021/04/10 13:14:43;;;;;;;2.13;1.05;;;;;;;;;;5002204;28;20407;-71
2021/04/10 13:17:09;;;;;;;1.60;1.23;;;;;;;;;;5003828;28;20377;-70
2021/04/10 13:19:35;;;;;;;1.75;1.30;;;21.20;62.60;;;;;;5005296;28;20390;-70
2021/04/10 13:22:01;;;;;;;2.97;1.30;;;;;;;;;;5003543;28;21207;-69
2021/04/10 13:24:27;;;;;;;2.17;1.23;;;;;;;;;;5005121;28;20380;-70
2021/04/10 13:26:54;;;;;;;2.20;1.60;;;;;;;;;;5001547;28;20417;-74
2021/04/10 13:29:20;;;;;;;1.83;1.00;;;21.60;62.70;;;;;;5002486;28;20385;-69
2021/04/10 13:31:46;;;;;;;1.70;1.23;;;;;;;;;;5003698;28;20423;-70
2021/04/10 13:34:13;;;;;;;2.42;1.10;;;22.50;60.60;;;;;;5006165;28;20409;-71
2021/04/10 13:36:40;;;;;;;1.40;1.10;;;;;;;;;;4999558;28;20406;-72
2021/04/10 13:39:08;;;;;;;2.78;1.20;;;;;;;;;;5002777;28;20409;-71
2021/04/10 13:41:34;;;;;;;1.10;0.98;;;21.40;61.60;;;;;;5005320;28;20385;-71
2021/04/10 13:44:01;;;;;;;3.00;1.23;;;21.40;61.20;;;;;;5005379;28;20400;-69
2021/04/10 13:46:27;;;;;;;2.30;1.02;;;;;;;;;;5005959;28;20385;-74
2021/04/10 13:48:54;;;;;;;2.80;1.10;;;;;;;;;;5004361;28;20450;-72
2021/04/10 13:51:19;;;;;;;1.50;0.90;;;21.50;65.30;;;;;;5002889;28;20376;-76
2021/04/10 13:53:46;;;;;;;0.90;0.90;;;22.00;63.40;;;;;;5007672;28;20409;-69
2021/04/10 13:56:12;;;;;;;1.77;1.10;;;;;;;;;;5010186;28;20521;-75
2021/04/10 13:58:38;;;;;;;1.63;1.30;;;;;;;;;;5001121;28;20408;-70
2021/04/10 14:01:05;;;;;;;1.85;1.30;;;21.60;61.50;;;;;;5002054;28;20468;-70
2021/04/10 14:03:31;;;;;;;1.50;1.10;;;;;;;;;;4997092;28;20399;-71